sensor_id;sensor_type;location;lat;lon;timestamp;pressure;altitude;pressure_sealevel;temperature
65765;BMP180;52915;53.718;19.946;2022-08-20T00:01:39;100157.40;;;25.02
65765;BMP180;52915;53.718;19.946;2022-08-20T00:06:44;100151.80;;;24.60
65765;BMP180;52915;53.718;19.946;2022-08-20T00:11:48;100146.00;;;24.20
65765;BMP180;52915;53.718;19.946;2022-08-20T00:16:54;100138.40;;;23.90
65765;BMP180;52915;53.718;19.946;2022-08-20T00:22:02;100127.00;;;23.50
65765;BMP180;52915;53.718;19.946;2022-08-20T00:27:07;100124.40;;;23.30
65765;BMP180;52915;53.718;19.946;2022-08-20T00:32:11;100131.80;;;23.10
65765;BMP180;52915;53.718;19.946;2022-08-20T00:37:16;100098.00;;;23.00
65765;BMP180;52915;53.718;19.946;2022-08-20T00:42:23;100088.80;;;22.90
65765;BMP180;52915;53.718;19.946;2022-08-20T00:47:28;100084.20;;;22.80
65765;BMP180;52915;53.718;19.946;2022-08-20T00:52:32;100070.40;;;22.80
65765;BMP180;52915;53.718;19.946;2022-08-20T00:57:42;100067.00;;;22.70
65765;BMP180;52915;53.718;19.946;2022-08-20T01:03:08;100063.80;;;22.70
65765;BMP180;52915;53.718;19.946;2022-08-20T01:08:20;100048.60;;;22.70
65765;BMP180;52915;53.718;19.946;2022-08-20T01:13:27;100031.60;;;22.70
65765;BMP180;52915;53.718;19.946;2022-08-20T01:18:31;100019.40;;;22.70
65765;BMP180;52915;53.718;19.946;2022-08-20T01:29:07;100010.00;;;22.60
65765;BMP180;52915;53.718;19.946;2022-08-20T01:34:17;100027.80;;;22.50
65765;BMP180;52915;53.718;19.946;2022-08-20T01:39:30;99997.20;;;22.42
65765;BMP180;52915;53.718;19.946;2022-08-20T01:44:37;100020.40;;;22.40
65765;BMP180;52915;53.718;19.946;2022-08-20T01:49:49;100053.00;;;22.38
65765;BMP180;52915;53.718;19.946;2022-08-20T01:55:08;100084.00;;;22.30
65765;BMP180;52915;53.718;19.946;2022-08-20T02:00:20;100104.60;;;22.20
65765;BMP180;52915;53.718;19.946;2022-08-20T02:05:24;100129.40;;;22.20
65765;BMP180;52915;53.718;19.946;2022-08-20T02:10:33;100130.20;;;22.10
65765;BMP180;52915;53.718;19.946;2022-08-20T02:15:37;100134.40;;;22.04
65765;BMP180;52915;53.718;19.946;2022-08-20T02:20:47;100126.00;;;22.00
65765;BMP180;52915;53.718;19.946;2022-08-20T02:25:53;100122.20;;;21.90
65765;BMP180;52915;53.718;19.946;2022-08-20T02:30:58;100131.20;;;21.90
65765;BMP180;52915;53.718;19.946;2022-08-20T02:36:03;100125.20;;;21.90
65765;BMP180;52915;53.718;19.946;2022-08-20T02:41:10;100134.40;;;21.88
65765;BMP180;52915;53.718;19.946;2022-08-20T02:46:15;100130.80;;;21.82
65765;BMP180;52915;53.718;19.946;2022-08-20T02:51:19;100129.40;;;21.80
65765;BMP180;52915;53.718;19.946;2022-08-20T02:56:33;100128.00;;;21.80
65765;BMP180;52915;53.718;19.946;2022-08-20T03:01:37;100135.00;;;21.78
65765;BMP180;52915;53.718;19.946;2022-08-20T03:06:44;100135.20;;;21.78
65765;BMP180;52915;53.718;19.946;2022-08-20T03:11:49;100141.20;;;21.70
65765;BMP180;52915;53.718;19.946;2022-08-20T03:16:53;100135.80;;;21.70
65765;BMP180;52915;53.718;19.946;2022-08-20T03:21:58;100133.60;;;21.70
65765;BMP180;52915;53.718;19.946;2022-08-20T03:27:03;100130.40;;;21.70
65765;BMP180;52915;53.718;19.946;2022-08-20T03:32:08;100129.20;;;21.70
65765;BMP180;52915;53.718;19.946;2022-08-20T03:37:12;100130.20;;;21.70
65765;BMP180;52915;53.718;19.946;2022-08-20T03:42:16;100127.80;;;21.70
65765;BMP180;52915;53.718;19.946;2022-08-20T03:47:21;100124.00;;;21.70
65765;BMP180;52915;53.718;19.946;2022-08-20T03:52:26;100127.20;;;21.70
65765;BMP180;52915;53.718;19.946;2022-08-20T03:57:32;100126.00;;;21.78
65765;BMP180;52915;53.718;19.946;2022-08-20T04:02:36;100120.40;;;21.80
65765;BMP180;52915;53.718;19.946;2022-08-20T04:07:41;100116.40;;;21.80
65765;BMP180;52915;53.718;19.946;2022-08-20T04:12:46;100109.00;;;21.80
65765;BMP180;52915;53.718;19.946;2022-08-20T04:17:55;100105.80;;;21.80
65765;BMP180;52915;53.718;19.946;2022-08-20T04:22:59;100105.60;;;21.80
65765;BMP180;52915;53.718;19.946;2022-08-20T04:28:07;100097.80;;;21.84
65765;BMP180;52915;53.718;19.946;2022-08-20T04:33:16;100093.40;;;21.90
65765;BMP180;52915;53.718;19.946;2022-08-20T04:38:25;100081.80;;;21.90
65765;BMP180;52915;53.718;19.946;2022-08-20T04:43:54;100081.00;;;21.90
65765;BMP180;52915;53.718;19.946;2022-08-20T04:48:59;100083.80;;;21.90
65765;BMP180;52915;53.718;19.946;2022-08-20T04:54:05;100085.40;;;22.00
65765;BMP180;52915;53.718;19.946;2022-08-20T04:59:09;100081.40;;;22.00
65765;BMP180;52915;53.718;19.946;2022-08-20T05:04:17;100079.00;;;22.10
65765;BMP180;52915;53.718;19.946;2022-08-20T05:09:22;100082.40;;;22.12
65765;BMP180;52915;53.718;19.946;2022-08-20T05:14:27;100091.60;;;22.20
65765;BMP180;52915;53.718;19.946;2022-08-20T05:19:34;100078.80;;;22.30
65765;BMP180;52915;53.718;19.946;2022-08-20T05:24:44;100035.20;;;22.30
65765;BMP180;52915;53.718;19.946;2022-08-20T05:29:48;100045.60;;;22.30
65765;BMP180;52915;53.718;19.946;2022-08-20T05:34:54;100034.00;;;22.30
65765;BMP180;52915;53.718;19.946;2022-08-20T05:39:58;100055.00;;;22.30
65765;BMP180;52915;53.718;19.946;2022-08-20T05:45:06;100051.80;;;22.44
65765;BMP180;52915;53.718;19.946;2022-08-20T05:50:16;100057.80;;;22.60
65765;BMP180;52915;53.718;19.946;2022-08-20T05:55:27;100060.60;;;22.70
65765;BMP180;52915;53.718;19.946;2022-08-20T06:00:33;100085.60;;;22.80
65765;BMP180;52915;53.718;19.946;2022-08-20T06:05:38;100092.00;;;22.80
65765;BMP180;52915;53.718;19.946;2022-08-20T06:10:43;100102.00;;;22.80
65765;BMP180;52915;53.718;19.946;2022-08-20T06:15:48;100094.40;;;22.90
65765;BMP180;52915;53.718;19.946;2022-08-20T06:20:54;100086.40;;;23.00
65765;BMP180;52915;53.718;19.946;2022-08-20T06:25:59;100065.20;;;23.10
65765;BMP180;52915;53.718;19.946;2022-08-20T06:31:04;100059.60;;;23.30
65765;BMP180;52915;53.718;19.946;2022-08-20T06:36:08;100066.80;;;23.30
65765;BMP180;52915;53.718;19.946;2022-08-20T06:41:17;100076.80;;;23.34
65765;BMP180;52915;53.718;19.946;2022-08-20T06:46:25;100075.00;;;23.38
65765;BMP180;52915;53.718;19.946;2022-08-20T06:51:32;100079.40;;;23.50
65765;BMP180;52915;53.718;19.946;2022-08-20T06:56:37;100078.00;;;23.60
65765;BMP180;52915;53.718;19.946;2022-08-20T07:01:42;100074.80;;;23.80
65765;BMP180;52915;53.718;19.946;2022-08-20T07:06:47;100088.40;;;24.10
65765;BMP180;52915;53.718;19.946;2022-08-20T07:11:53;100086.60;;;24.40
65765;BMP180;52915;53.718;19.946;2022-08-20T07:17:02;100091.40;;;24.60
65765;BMP180;52915;53.718;19.946;2022-08-20T07:22:13;100102.00;;;24.70
65765;BMP180;52915;53.718;19.946;2022-08-20T07:27:22;100105.80;;;24.74
65765;BMP180;52915;53.718;19.946;2022-08-20T07:32:27;100109.80;;;24.68
65765;BMP180;52915;53.718;19.946;2022-08-20T07:37:46;100109.20;;;24.70
65765;BMP180;52915;53.718;19.946;2022-08-20T07:42:54;100107.00;;;24.90
65765;BMP180;52915;53.718;19.946;2022-08-20T07:48:07;100100.40;;;25.20
65765;BMP180;52915;53.718;19.946;2022-08-20T07:53:11;100096.20;;;25.50
65765;BMP180;52915;53.718;19.946;2022-08-20T07:58:19;100102.40;;;25.70
65765;BMP180;52915;53.718;19.946;2022-08-20T08:03:37;100097.80;;;25.80
65765;BMP180;52915;53.718;19.946;2022-08-20T08:08:54;100096.00;;;25.70
65765;BMP180;52915;53.718;19.946;2022-08-20T08:13:59;100106.00;;;25.60
65765;BMP180;52915;53.718;19.946;2022-08-20T08:19:08;100101.00;;;25.80
65765;BMP180;52915;53.718;19.946;2022-08-20T08:24:14;100102.00;;;26.10
65765;BMP180;52915;53.718;19.946;2022-08-20T08:29:25;100095.60;;;26.30
65765;BMP180;52915;53.718;19.946;2022-08-20T08:34:35;100096.00;;;26.70
65765;BMP180;52915;53.718;19.946;2022-08-20T08:39:40;100094.40;;;26.90
65765;BMP180;52915;53.718;19.946;2022-08-20T08:44:45;100105.20;;;27.10
65765;BMP180;52915;53.718;19.946;2022-08-20T08:49:50;100102.60;;;27.30
65765;BMP180;52915;53.718;19.946;2022-08-20T08:54:58;100098.00;;;27.60
65765;BMP180;52915;53.718;19.946;2022-08-20T09:00:13;100089.00;;;27.94
65765;BMP180;52915;53.718;19.946;2022-08-20T09:05:22;100084.80;;;28.64
65765;BMP180;52915;53.718;19.946;2022-08-20T09:10:26;100080.80;;;29.04
65765;BMP180;52915;53.718;19.946;2022-08-20T09:15:31;100085.40;;;29.22
65765;BMP180;52915;53.718;19.946;2022-08-20T09:20:36;100082.20;;;29.10
65765;BMP180;52915;53.718;19.946;2022-08-20T09:25:40;100077.00;;;29.20
65765;BMP180;52915;53.718;19.946;2022-08-20T09:30:44;100072.40;;;29.20
65765;BMP180;52915;53.718;19.946;2022-08-20T09:35:49;100073.80;;;29.50
65765;BMP180;52915;53.718;19.946;2022-08-20T09:40:54;100083.60;;;29.50
65765;BMP180;52915;53.718;19.946;2022-08-20T09:45:58;100083.80;;;29.00
65765;BMP180;52915;53.718;19.946;2022-08-20T09:51:03;100083.00;;;28.58
65765;BMP180;52915;53.718;19.946;2022-08-20T09:56:11;100084.20;;;28.20
65765;BMP180;52915;53.718;19.946;2022-08-20T10:01:20;100081.20;;;28.00
65765;BMP180;52915;53.718;19.946;2022-08-20T10:06:25;100082.20;;;27.90
65765;BMP180;52915;53.718;19.946;2022-08-20T10:11:29;100084.60;;;27.90
65765;BMP180;52915;53.718;19.946;2022-08-20T10:16:35;100089.40;;;27.80
65765;BMP180;52915;53.718;19.946;2022-08-20T10:21:40;100095.20;;;27.70
65765;BMP180;52915;53.718;19.946;2022-08-20T10:26:46;100086.20;;;27.50
65765;BMP180;52915;53.718;19.946;2022-08-20T10:31:51;100092.00;;;27.50
65765;BMP180;52915;53.718;19.946;2022-08-20T10:36:56;100095.20;;;27.40
65765;BMP180;52915;53.718;19.946;2022-08-20T10:42:05;100092.00;;;27.30
65765;BMP180;52915;53.718;19.946;2022-08-20T10:47:30;100094.60;;;27.30
65765;BMP180;52915;53.718;19.946;2022-08-20T10:52:35;100101.40;;;27.40
65765;BMP180;52915;53.718;19.946;2022-08-20T10:57:41;100096.40;;;27.60
65765;BMP180;52915;53.718;19.946;2022-08-20T11:02:46;100096.20;;;27.60
65765;BMP180;52915;53.718;19.946;2022-08-20T11:07:50;100097.60;;;27.60
65765;BMP180;52915;53.718;19.946;2022-08-20T11:13:04;100094.40;;;27.70
65765;BMP180;52915;53.718;19.946;2022-08-20T11:18:10;100085.20;;;27.92
65765;BMP180;52915;53.718;19.946;2022-08-20T11:23:15;100078.80;;;28.26
65765;BMP180;52915;53.718;19.946;2022-08-20T11:28:20;100069.00;;;28.80
65765;BMP180;52915;53.718;19.946;2022-08-20T11:33:34;100068.00;;;29.30
65765;BMP180;52915;53.718;19.946;2022-08-20T11:38:39;100077.20;;;29.62
65765;BMP180;52915;53.718;19.946;2022-08-20T11:43:43;100072.60;;;29.70
65765;BMP180;52915;53.718;19.946;2022-08-20T11:49:15;100068.40;;;29.80
65765;BMP180;52915;53.718;19.946;2022-08-20T11:54:20;100059.80;;;29.80
65765;BMP180;52915;53.718;19.946;2022-08-20T11:59:25;100063.40;;;29.70
65765;BMP180;52915;53.718;19.946;2022-08-20T12:04:30;100066.00;;;29.70
65765;BMP180;52915;53.718;19.946;2022-08-20T12:09:36;100063.40;;;29.90
65765;BMP180;52915;53.718;19.946;2022-08-20T12:14:55;100062.60;;;30.10
65765;BMP180;52915;53.718;19.946;2022-08-20T12:20:08;100070.20;;;30.20
65765;BMP180;52915;53.718;19.946;2022-08-20T12:25:14;100062.00;;;30.50
65765;BMP180;52915;53.718;19.946;2022-08-20T12:30:22;100062.80;;;31.10
65765;BMP180;52915;53.718;19.946;2022-08-20T12:35:27;100060.80;;;31.60
65765;BMP180;52915;53.718;19.946;2022-08-20T12:40:34;100048.60;;;32.16
65765;BMP180;52915;53.718;19.946;2022-08-20T12:45:39;100052.80;;;33.00
65765;BMP180;52915;53.718;19.946;2022-08-20T12:50:43;100053.00;;;33.30
65765;BMP180;52915;53.718;19.946;2022-08-20T12:55:49;100058.20;;;33.40
65765;BMP180;52915;53.718;19.946;2022-08-20T13:00:53;100058.80;;;33.42
65765;BMP180;52915;53.718;19.946;2022-08-20T13:06:00;100056.60;;;33.50
65765;BMP180;52915;53.718;19.946;2022-08-20T13:11:05;100063.00;;;33.40
65765;BMP180;52915;53.718;19.946;2022-08-20T13:16:09;100049.20;;;33.18
65765;BMP180;52915;53.718;19.946;2022-08-20T13:21:13;100045.00;;;33.20
65765;BMP180;52915;53.718;19.946;2022-08-20T13:26:36;100042.00;;;33.60
65765;BMP180;52915;53.718;19.946;2022-08-20T13:31:41;100040.80;;;33.94
65765;BMP180;52915;53.718;19.946;2022-08-20T13:36:45;100039.20;;;34.00
65765;BMP180;52915;53.718;19.946;2022-08-20T13:41:49;100047.20;;;33.60
65765;BMP180;52915;53.718;19.946;2022-08-20T13:46:54;100041.20;;;33.50
65765;BMP180;52915;53.718;19.946;2022-08-20T13:51:58;100037.00;;;33.30
65765;BMP180;52915;53.718;19.946;2022-08-20T13:57:15;100031.20;;;33.30
65765;BMP180;52915;53.718;19.946;2022-08-20T14:02:24;100030.40;;;33.26
65765;BMP180;52915;53.718;19.946;2022-08-20T14:07:30;100033.00;;;33.20
65765;BMP180;52915;53.718;19.946;2022-08-20T14:12:35;100028.20;;;33.28
65765;BMP180;52915;53.718;19.946;2022-08-20T14:17:49;100026.60;;;33.30
65765;BMP180;52915;53.718;19.946;2022-08-20T14:22:53;100020.60;;;33.10
65765;BMP180;52915;53.718;19.946;2022-08-20T14:28:10;100034.40;;;32.50
65765;BMP180;52915;53.718;19.946;2022-08-20T14:33:15;100042.00;;;31.72
65765;BMP180;52915;53.718;19.946;2022-08-20T14:38:20;100044.80;;;31.10
65765;BMP180;52915;53.718;19.946;2022-08-20T14:43:25;100042.80;;;30.40
65765;BMP180;52915;53.718;19.946;2022-08-20T14:48:29;100035.60;;;29.80
65765;BMP180;52915;53.718;19.946;2022-08-20T14:53:33;100035.80;;;29.50
65765;BMP180;52915;53.718;19.946;2022-08-20T14:58:44;100048.00;;;29.20
65765;BMP180;52915;53.718;19.946;2022-08-20T15:03:50;100055.40;;;28.90
65765;BMP180;52915;53.718;19.946;2022-08-20T15:08:55;100068.00;;;28.70
65765;BMP180;52915;53.718;19.946;2022-08-20T15:14:00;100078.00;;;28.56
65765;BMP180;52915;53.718;19.946;2022-08-20T15:19:05;100081.80;;;28.40
65765;BMP180;52915;53.718;19.946;2022-08-20T15:24:09;100080.80;;;28.20
65765;BMP180;52915;53.718;19.946;2022-08-20T15:29:21;100079.40;;;28.20
65765;BMP180;52915;53.718;19.946;2022-08-20T15:34:26;100068.60;;;28.00
65765;BMP180;52915;53.718;19.946;2022-08-20T15:39:36;100061.60;;;27.76
65765;BMP180;52915;53.718;19.946;2022-08-20T15:44:43;100070.00;;;27.60
65765;BMP180;52915;53.718;19.946;2022-08-20T15:50:01;100077.40;;;27.60
65765;BMP180;52915;53.718;19.946;2022-08-20T15:55:16;100082.00;;;27.40
65765;BMP180;52915;53.718;19.946;2022-08-20T16:00:27;100084.20;;;27.20
65765;BMP180;52915;53.718;19.946;2022-08-20T16:11:31;100109.80;;;26.58
65765;BMP180;52915;53.718;19.946;2022-08-20T16:16:55;100106.60;;;26.18
65765;BMP180;52915;53.718;19.946;2022-08-20T16:22:17;100118.40;;;26.00
65765;BMP180;52915;53.718;19.946;2022-08-20T16:33:11;100087.80;;;26.00
65765;BMP180;52915;53.718;19.946;2022-08-20T16:38:48;100070.60;;;26.06
65765;BMP180;52915;53.718;19.946;2022-08-20T16:44:38;100067.60;;;26.20
65765;BMP180;52915;53.718;19.946;2022-08-20T16:49:56;100073.00;;;26.00
65765;BMP180;52915;53.718;19.946;2022-08-20T16:55:03;100079.80;;;26.10
65765;BMP180;52915;53.718;19.946;2022-08-20T17:05:18;100088.60;;;25.78
65765;BMP180;52915;53.718;19.946;2022-08-20T17:10:28;100082.20;;;25.60
65765;BMP180;52915;53.718;19.946;2022-08-20T17:15:34;100075.60;;;25.40
65765;BMP180;52915;53.718;19.946;2022-08-20T17:20:44;100075.80;;;25.10
65765;BMP180;52915;53.718;19.946;2022-08-20T17:26:01;100066.40;;;24.90
65765;BMP180;52915;53.718;19.946;2022-08-20T17:31:07;100069.80;;;24.80
65765;BMP180;52915;53.718;19.946;2022-08-20T17:36:20;100079.40;;;24.70
65765;BMP180;52915;53.718;19.946;2022-08-20T17:41:30;100073.20;;;24.70
65765;BMP180;52915;53.718;19.946;2022-08-20T17:46:45;100066.20;;;24.80
65765;BMP180;52915;53.718;19.946;2022-08-20T17:51:59;100079.60;;;24.80
65765;BMP180;52915;53.718;19.946;2022-08-20T17:57:16;100089.20;;;24.60
65765;BMP180;52915;53.718;19.946;2022-08-20T18:02:23;100091.00;;;24.68
65765;BMP180;52915;53.718;19.946;2022-08-20T18:07:54;100097.40;;;24.70
65765;BMP180;52915;53.718;19.946;2022-08-20T18:13:19;100105.60;;;24.70
65765;BMP180;52915;53.718;19.946;2022-08-20T18:18:38;100103.60;;;24.36
65765;BMP180;52915;53.718;19.946;2022-08-20T18:24:17;100085.60;;;24.10
65765;BMP180;52915;53.718;19.946;2022-08-20T18:29:31;100085.00;;;24.00
65765;BMP180;52915;53.718;19.946;2022-08-20T18:34:40;100096.80;;;24.02
65765;BMP180;52915;53.718;19.946;2022-08-20T18:39:48;100124.40;;;24.00
65765;BMP180;52915;53.718;19.946;2022-08-20T18:44:58;100121.60;;;23.90
65765;BMP180;52915;53.718;19.946;2022-08-20T18:55:40;100103.60;;;23.70
65765;BMP180;52915;53.718;19.946;2022-08-20T19:00:48;100086.20;;;23.60
65765;BMP180;52915;53.718;19.946;2022-08-20T19:11:42;100083.60;;;23.60
65765;BMP180;52915;53.718;19.946;2022-08-20T19:50:20;100071.20;;;23.10
65765;BMP180;52915;53.718;19.946;2022-08-20T19:55:35;100088.60;;;22.60
65765;BMP180;52915;53.718;19.946;2022-08-20T20:00:52;100063.60;;;22.30
65765;BMP180;52915;53.718;19.946;2022-08-20T20:06:17;100061.20;;;22.30
65765;BMP180;52915;53.718;19.946;2022-08-20T20:11:46;100082.20;;;22.38
65765;BMP180;52915;53.718;19.946;2022-08-20T20:16:58;100100.80;;;22.40
65765;BMP180;52915;53.718;19.946;2022-08-20T20:22:32;100116.60;;;22.40
65765;BMP180;52915;53.718;19.946;2022-08-20T20:28:47;100163.20;;;22.40
65765;BMP180;52915;53.718;19.946;2022-08-20T20:34:06;100201.00;;;22.18
